createdAt,value
2023-05-05T00:01:34.179Z,11.07
2023-05-05T00:04:01.659Z,11.02
2023-05-05T00:06:29.022Z,10.95
2023-05-05T00:08:56.309Z,10.97
2023-05-05T00:11:23.783Z,10.89
2023-05-05T00:13:51.466Z,10.87
2023-05-05T00:16:18.708Z,10.82
2023-05-05T00:18:46.144Z,10.85
2023-05-05T00:21:13.353Z,10.79
2023-05-05T00:23:40.467Z,10.74
2023-05-05T00:26:07.868Z,10.73
2023-05-05T00:28:35.072Z,10.76
2023-05-05T00:31:02.306Z,10.71
2023-05-05T00:33:29.857Z,10.71
2023-05-05T00:35:57.023Z,10.66
2023-05-05T00:38:24.092Z,10.59
2023-05-05T00:40:51.502Z,10.60
2023-05-05T00:43:18.677Z,10.53
2023-05-05T00:45:47.914Z,10.51
2023-05-05T00:48:17.005Z,10.38
2023-05-05T00:50:45.078Z,10.35
2023-05-05T00:53:12.270Z,10.34
2023-05-05T00:55:40.443Z,10.22
2023-05-05T00:58:07.950Z,10.22
2023-05-05T01:00:35.157Z,10.23
2023-05-05T01:03:03.217Z,10.27
2023-05-05T01:05:41.648Z,10.19
2023-05-05T01:08:44.395Z,10.14
2023-05-05T01:11:37.687Z,10.13
2023-05-05T01:14:24.719Z,10.06
2023-05-05T01:16:58.407Z,10.02
2023-05-05T01:19:59.512Z,9.96
2023-05-05T01:22:36.928Z,9.91
2023-05-05T01:25:27.134Z,9.91
2023-05-05T01:28:13.066Z,9.85
2023-05-05T01:31:25.945Z,9.80
2023-05-05T01:34:01.845Z,9.77
2023-05-05T01:36:34.828Z,9.76
2023-05-05T01:39:03.088Z,9.79
2023-05-05T01:41:47.032Z,9.74
2023-05-05T01:44:16.251Z,9.68
2023-05-05T01:46:43.607Z,9.65
2023-05-05T01:49:11.220Z,9.59
2023-05-05T01:51:39.215Z,9.66
2023-05-05T01:54:10.652Z,9.63
2023-05-05T01:56:39.169Z,9.56
2023-05-05T01:59:07.159Z,9.50
2023-05-05T02:01:37.473Z,9.47
2023-05-05T02:04:06.359Z,9.48
2023-05-05T02:06:33.995Z,9.44
2023-05-05T02:09:02.563Z,9.39
2023-05-05T02:11:30.155Z,9.36
2023-05-05T02:13:57.986Z,9.37
2023-05-05T02:16:25.566Z,9.37
2023-05-05T02:18:54.399Z,9.31
2023-05-05T02:21:22.797Z,9.34
2023-05-05T02:23:51.945Z,9.35
2023-05-05T02:26:21.779Z,9.26
2023-05-05T02:29:07.259Z,9.22
2023-05-05T02:31:38.370Z,9.24
2023-05-05T02:34:07.560Z,9.14
2023-05-05T02:36:38.687Z,9.12
2023-05-05T02:39:18.273Z,9.13
2023-05-05T02:41:47.327Z,9.07
2023-05-05T02:44:17.028Z,9.05
2023-05-05T02:46:44.405Z,9.06
2023-05-05T02:49:12.391Z,8.99
2023-05-05T02:51:40.925Z,8.99
2023-05-05T02:54:10.035Z,8.94
2023-05-05T02:56:41.312Z,8.89
2023-05-05T02:59:22.274Z,8.92
2023-05-05T03:02:09.278Z,8.86
2023-05-05T03:04:43.155Z,8.85
2023-05-05T03:07:14.423Z,8.91
2023-05-05T03:09:54.061Z,8.90
2023-05-05T03:12:27.944Z,8.95
2023-05-05T03:14:58.282Z,8.92
2023-05-05T03:17:28.139Z,8.86
2023-05-05T03:19:55.725Z,8.88
2023-05-05T03:22:23.189Z,8.83
2023-05-05T03:24:51.632Z,8.81
2023-05-05T03:27:20.456Z,8.85
2023-05-05T03:29:47.893Z,8.83
2023-05-05T03:32:15.797Z,8.83
2023-05-05T03:34:43.355Z,8.88
2023-05-05T03:37:10.564Z,8.96
2023-05-05T03:39:38.715Z,8.98
2023-05-05T03:42:06.969Z,8.95
2023-05-05T03:44:35.222Z,8.99
2023-05-05T03:47:02.868Z,9.04
2023-05-05T03:49:30.741Z,9.04
2023-05-05T03:51:58.090Z,9.03
2023-05-05T03:54:25.679Z,9.05
2023-05-05T03:56:52.866Z,9.11
2023-05-05T03:59:20.085Z,9.17
2023-05-05T04:01:48.998Z,9.21
2023-05-05T04:04:17.309Z,9.37
2023-05-05T04:06:44.546Z,9.51
2023-05-05T04:09:13.772Z,9.65
2023-05-05T04:11:41.317Z,9.76
2023-05-05T04:14:10.127Z,9.86
2023-05-05T04:16:37.862Z,10.14
2023-05-05T04:19:05.444Z,10.60
2023-05-05T04:21:32.800Z,10.99
2023-05-05T04:24:00.048Z,11.36
2023-05-05T04:26:27.798Z,11.69
2023-05-05T04:28:55.819Z,11.96
2023-05-05T04:31:23.319Z,12.15
2023-05-05T04:33:51.378Z,12.53
2023-05-05T04:36:19.245Z,12.67
2023-05-05T04:38:47.044Z,12.66
2023-05-05T04:41:14.535Z,12.79
2023-05-05T04:43:42.138Z,13.20
2023-05-05T04:46:09.376Z,12.81
2023-05-05T04:48:37.958Z,12.47
2023-05-05T04:51:06.451Z,12.26
2023-05-05T04:53:33.911Z,12.14
2023-05-05T04:56:02.622Z,12.08
2023-05-05T04:58:29.896Z,12.10
2023-05-05T05:00:57.489Z,12.24
2023-05-05T05:03:25.325Z,12.31
2023-05-05T05:05:53.196Z,12.55
2023-05-05T05:08:20.459Z,12.83
2023-05-05T05:10:48.028Z,13.09
2023-05-05T05:13:15.377Z,13.17
2023-05-05T05:15:42.917Z,13.13
2023-05-05T05:18:10.444Z,13.03
2023-05-05T05:20:38.653Z,12.99
2023-05-05T05:23:05.914Z,12.95
2023-05-05T05:25:33.669Z,13.00
2023-05-05T05:28:08.733Z,13.07
2023-05-05T05:30:38.294Z,13.33
2023-05-05T05:33:06.191Z,13.56
2023-05-05T05:35:33.638Z,13.83
2023-05-05T05:38:01.326Z,14.10
2023-05-05T05:40:28.579Z,14.43
2023-05-05T05:42:56.174Z,14.58
2023-05-05T05:45:23.940Z,14.68
2023-05-05T05:47:51.233Z,14.51
2023-05-05T05:50:18.721Z,14.40
2023-05-05T05:52:46.337Z,14.27
2023-05-05T05:55:13.660Z,14.04
2023-05-05T05:57:41.390Z,14.04
2023-05-05T06:00:09.939Z,14.22
2023-05-05T06:02:39.042Z,14.26
2023-05-05T06:05:08.039Z,14.51
2023-05-05T06:07:35.457Z,14.70
2023-05-05T06:10:14.403Z,14.88
2023-05-05T06:12:46.610Z,15.20
2023-05-05T06:15:13.850Z,15.41
2023-05-05T06:17:41.177Z,15.71
2023-05-05T06:20:09.342Z,15.87
2023-05-05T06:22:36.618Z,15.96
2023-05-05T06:25:04.332Z,16.03
2023-05-05T06:27:31.892Z,16.11
2023-05-05T06:29:59.072Z,16.06
2023-05-05T06:32:26.295Z,16.09
2023-05-05T06:34:53.753Z,16.30
2023-05-05T06:37:20.906Z,16.38
2023-05-05T06:39:47.996Z,16.08
2023-05-05T06:42:15.458Z,16.00
2023-05-05T06:44:42.631Z,15.97
2023-05-05T06:47:09.832Z,16.00
2023-05-05T06:49:37.298Z,16.26
2023-05-05T06:52:04.638Z,16.45
2023-05-05T06:54:31.788Z,16.59
2023-05-05T06:56:59.807Z,16.52
2023-05-05T06:59:27.027Z,16.42
2023-05-05T07:01:54.266Z,16.51
2023-05-05T07:04:21.633Z,16.64
2023-05-05T07:06:48.750Z,16.77
2023-05-05T07:09:17.100Z,16.91
2023-05-05T07:11:46.379Z,16.88
2023-05-05T07:14:13.583Z,16.95
2023-05-05T07:16:40.973Z,17.17
2023-05-05T07:19:08.516Z,17.24
2023-05-05T07:21:35.835Z,17.25
2023-05-05T07:24:03.551Z,17.29
2023-05-05T07:26:31.269Z,16.95
2023-05-05T07:28:58.967Z,16.91
2023-05-05T07:31:26.621Z,17.25
2023-05-05T07:33:54.192Z,17.40
2023-05-05T07:36:21.374Z,17.55
2023-05-05T07:38:48.435Z,17.68
2023-05-05T07:41:16.146Z,17.81
2023-05-05T07:43:44.665Z,17.86
2023-05-05T07:46:12.267Z,17.98
2023-05-05T07:48:41.602Z,18.12
2023-05-05T07:51:09.790Z,18.25
2023-05-05T07:53:37.328Z,18.16
2023-05-05T07:56:04.805Z,17.86
2023-05-05T07:58:32.038Z,17.90
2023-05-05T08:00:59.483Z,17.96
2023-05-05T08:03:27.194Z,18.18
2023-05-05T08:05:55.537Z,18.40
2023-05-05T08:08:26.946Z,18.34
2023-05-05T08:10:54.554Z,18.17
2023-05-05T08:13:21.741Z,18.14
2023-05-05T08:15:48.967Z,18.32
2023-05-05T08:18:16.328Z,17.99
2023-05-05T08:20:43.444Z,18.16
2023-05-05T08:23:10.565Z,18.47
2023-05-05T08:25:37.996Z,18.63
2023-05-05T08:28:05.153Z,18.07
2023-05-05T08:30:34.851Z,17.72
2023-05-05T08:33:02.295Z,17.52
2023-05-05T08:35:29.439Z,17.33
2023-05-05T08:37:58.930Z,17.40
2023-05-05T08:40:30.456Z,17.28
2023-05-05T08:42:57.554Z,17.43
2023-05-05T08:45:24.783Z,17.60
2023-05-05T08:47:52.219Z,17.84
2023-05-05T08:50:19.779Z,17.80
2023-05-05T08:52:51.154Z,18.03
2023-05-05T08:55:26.889Z,17.72
2023-05-05T08:57:57.798Z,17.91
2023-05-05T09:00:27.173Z,18.02
2023-05-05T09:02:59.398Z,17.96
2023-05-05T09:05:27.176Z,18.02
2023-05-05T09:07:54.383Z,18.00
2023-05-05T09:10:21.616Z,17.98
2023-05-05T09:12:51.128Z,18.13
2023-05-05T09:15:18.637Z,18.44
2023-05-05T09:17:46.565Z,18.71
2023-05-05T09:20:14.838Z,19.09
2023-05-05T09:22:47.083Z,19.23
2023-05-05T09:25:16.408Z,19.15
2023-05-05T09:27:47.237Z,19.38
2023-05-05T09:30:23.982Z,19.46
2023-05-05T09:32:53.136Z,19.09
2023-05-05T09:35:21.973Z,19.34
2023-05-05T09:37:49.265Z,19.71
2023-05-05T09:40:18.271Z,19.77
2023-05-05T09:42:46.165Z,20.08
2023-05-05T09:45:19.609Z,20.00
2023-05-05T09:47:47.686Z,19.54
2023-05-05T09:50:18.552Z,19.21
2023-05-05T09:52:57.229Z,19.19
2023-05-05T09:55:25.485Z,19.42
2023-05-05T09:57:52.968Z,19.42
2023-05-05T10:00:20.691Z,19.04
2023-05-05T10:02:48.206Z,18.99
2023-05-05T10:05:17.142Z,18.87
2023-05-05T10:07:45.824Z,19.23
2023-05-05T10:10:15.216Z,19.47
2023-05-05T10:12:43.127Z,19.88
2023-05-05T10:15:11.692Z,20.14
2023-05-05T10:18:05.198Z,20.47
2023-05-05T10:20:33.602Z,20.16
2023-05-05T10:23:02.793Z,19.99
2023-05-05T10:25:33.822Z,19.94
2023-05-05T10:28:06.445Z,19.97
2023-05-05T10:30:37.263Z,20.21
2023-05-05T10:33:30.167Z,20.60
2023-05-05T10:36:02.323Z,20.44
2023-05-05T10:38:33.921Z,20.34
2023-05-05T10:41:02.158Z,20.12
2023-05-05T10:43:30.791Z,20.02
2023-05-05T10:45:58.435Z,20.23
2023-05-05T10:48:35.058Z,20.60
2023-05-05T10:51:13.188Z,20.90
2023-05-05T10:53:46.717Z,21.03
2023-05-05T10:56:22.180Z,21.24
2023-05-05T10:58:59.263Z,21.49
2023-05-05T11:01:34.679Z,21.55
2023-05-05T11:04:21.983Z,21.51
2023-05-05T11:07:09.658Z,21.24
2023-05-05T11:09:57.464Z,21.26
2023-05-05T11:12:24.968Z,21.30
2023-05-05T11:15:26.487Z,21.33
2023-05-05T11:17:55.529Z,21.63
2023-05-05T11:20:43.675Z,21.88
2023-05-05T11:23:11.249Z,22.05
2023-05-05T11:25:40.537Z,22.25
2023-05-05T11:28:16.323Z,22.33
2023-05-05T11:30:59.405Z,22.35
2023-05-05T11:33:29.235Z,22.05
2023-05-05T11:36:01.828Z,22.19
2023-05-05T11:38:33.345Z,22.10
2023-05-05T11:41:08.089Z,22.11
2023-05-05T11:43:35.575Z,22.22
2023-05-05T11:46:13.559Z,22.24
2023-05-05T11:48:52.813Z,22.23
2023-05-05T11:51:20.337Z,22.31
2023-05-05T11:53:50.207Z,22.44
2023-05-05T11:56:19.667Z,22.45
2023-05-05T11:58:50.187Z,22.55
2023-05-05T12:01:17.469Z,22.59
2023-05-05T12:03:45.846Z,22.70
2023-05-05T12:06:13.451Z,22.80
2023-05-05T12:08:41.392Z,22.83
2023-05-05T12:11:10.683Z,22.86
2023-05-05T12:13:37.992Z,22.87
2023-05-05T12:16:12.827Z,22.75
2023-05-05T12:18:41.116Z,22.83
2023-05-05T12:21:20.868Z,22.74
2023-05-05T12:23:48.373Z,22.63
2023-05-05T12:26:29.241Z,22.62
2023-05-05T12:28:58.270Z,22.74
2023-05-05T12:31:39.059Z,22.66
2023-05-05T12:34:08.465Z,22.77
2023-05-05T12:36:36.301Z,22.84
2023-05-05T12:39:06.508Z,22.95
2023-05-05T12:41:34.399Z,22.81
2023-05-05T12:44:03.128Z,22.73
2023-05-05T12:46:31.869Z,22.29
2023-05-05T12:49:05.372Z,22.13
2023-05-05T12:51:33.402Z,22.15
2023-05-05T12:54:03.160Z,22.13
2023-05-05T12:56:33.449Z,22.08
2023-05-05T12:59:02.419Z,22.40
2023-05-05T13:01:30.224Z,22.42
2023-05-05T13:04:13.994Z,22.63
2023-05-05T13:06:42.582Z,22.84
2023-05-05T13:09:23.091Z,22.75
2023-05-05T13:11:50.629Z,22.87
2023-05-05T13:14:17.790Z,22.70
2023-05-05T13:16:44.977Z,22.77
2023-05-05T13:19:12.521Z,22.86
2023-05-05T13:21:39.669Z,22.83
2023-05-05T13:24:19.788Z,22.94
2023-05-05T13:26:53.499Z,23.02
2023-05-05T13:29:20.692Z,22.52
2023-05-05T13:31:47.890Z,22.65
2023-05-05T13:34:15.488Z,22.70
2023-05-05T13:36:42.675Z,22.85
2023-05-05T13:39:09.932Z,22.85
2023-05-05T13:41:37.390Z,22.68
2023-05-05T13:44:04.713Z,22.77
2023-05-05T13:46:31.942Z,22.83
2023-05-05T13:48:59.443Z,22.78
2023-05-05T13:51:26.693Z,22.71
2023-05-05T13:53:53.960Z,22.78
2023-05-05T13:56:23.483Z,22.78
2023-05-05T13:58:50.825Z,22.95
2023-05-05T14:01:18.077Z,23.04
2023-05-05T14:03:45.724Z,23.15
2023-05-05T14:06:12.909Z,23.32
2023-05-05T14:08:40.049Z,23.46
2023-05-05T14:11:07.475Z,23.56
2023-05-05T14:13:34.721Z,23.66
2023-05-05T14:16:02.125Z,23.71
2023-05-05T14:18:29.713Z,23.76
2023-05-05T14:20:56.934Z,23.60
2023-05-05T14:23:24.098Z,23.69
2023-05-05T14:25:51.541Z,23.52
2023-05-05T14:28:18.737Z,23.36
2023-05-05T14:30:46.379Z,23.46
2023-05-05T14:33:13.873Z,23.70
2023-05-05T14:35:41.170Z,23.77
2023-05-05T14:38:08.422Z,23.84
2023-05-05T14:40:35.919Z,23.73
2023-05-05T14:43:03.113Z,23.86
2023-05-05T14:45:30.285Z,23.83
2023-05-05T14:47:57.837Z,23.94
2023-05-05T14:50:24.969Z,24.05
2023-05-05T14:52:52.162Z,24.18
2023-05-05T14:55:19.692Z,24.22
2023-05-05T14:57:46.914Z,24.26
2023-05-05T15:00:14.547Z,24.27
2023-05-05T15:02:42.048Z,24.30
2023-05-05T15:05:10.478Z,24.03
2023-05-05T15:07:37.932Z,23.79
2023-05-05T15:10:06.363Z,23.93
2023-05-05T15:12:33.734Z,24.07
2023-05-05T15:15:00.927Z,24.10
2023-05-05T15:17:28.685Z,24.20
2023-05-05T15:19:55.883Z,24.34
2023-05-05T15:22:23.093Z,24.38
2023-05-05T15:24:50.629Z,24.49
2023-05-05T15:27:18.587Z,24.44
2023-05-05T15:29:46.253Z,24.44
2023-05-05T15:32:13.752Z,24.39
2023-05-05T15:34:40.950Z,24.32
2023-05-05T15:37:08.162Z,24.34
2023-05-05T15:39:35.670Z,24.35
2023-05-05T15:42:03.785Z,24.33
2023-05-05T15:44:31.695Z,24.29
2023-05-05T15:46:59.298Z,24.23
2023-05-05T15:49:26.623Z,24.29
2023-05-05T15:51:53.818Z,24.24
2023-05-05T15:54:21.401Z,24.11
2023-05-05T15:56:49.621Z,24.00
2023-05-05T15:59:16.833Z,23.90
2023-05-05T16:01:44.403Z,23.82
2023-05-05T16:04:12.101Z,23.77
2023-05-05T16:06:39.237Z,23.68
2023-05-05T16:09:06.337Z,23.69
2023-05-05T16:11:33.745Z,23.73
2023-05-05T16:14:00.852Z,23.81
2023-05-05T16:16:27.987Z,23.98
2023-05-05T16:18:55.430Z,24.14
2023-05-05T16:21:22.572Z,24.15
2023-05-05T16:23:49.699Z,24.23
2023-05-05T16:26:17.072Z,24.29
2023-05-05T16:28:44.134Z,24.35
2023-05-05T16:31:11.517Z,24.44
2023-05-05T16:33:40.934Z,24.44
2023-05-05T16:36:14.789Z,24.34
2023-05-05T16:38:42.183Z,24.29
2023-05-05T16:41:10.689Z,24.21
2023-05-05T16:43:37.844Z,24.28
2023-05-05T16:46:06.361Z,24.28
2023-05-05T16:48:33.495Z,24.14
2023-05-05T16:51:00.858Z,24.19
2023-05-05T16:53:28.247Z,24.33
2023-05-05T16:55:55.423Z,24.35
2023-05-05T16:58:22.936Z,24.15
2023-05-05T17:00:50.901Z,24.01
2023-05-05T17:03:19.253Z,23.92
2023-05-05T17:05:50.447Z,23.79
2023-05-05T17:08:17.940Z,23.70
2023-05-05T17:10:46.233Z,23.34
2023-05-05T17:13:14.453Z,23.18
2023-05-05T17:15:50.185Z,22.87
2023-05-05T17:18:20.153Z,22.54
2023-05-05T17:20:49.105Z,22.28
2023-05-05T17:23:16.691Z,21.99
2023-05-05T17:25:43.932Z,21.73
2023-05-05T17:28:11.432Z,21.47
2023-05-05T17:30:38.498Z,21.12
2023-05-05T17:33:05.782Z,20.81
2023-05-05T17:35:33.290Z,20.59
2023-05-05T17:38:00.476Z,20.39
2023-05-05T17:40:27.690Z,20.12
2023-05-05T17:42:55.103Z,19.82
2023-05-05T17:45:22.220Z,19.62
2023-05-05T17:47:49.338Z,19.41
2023-05-05T17:50:16.823Z,19.14
2023-05-05T17:52:45.074Z,18.94
2023-05-05T17:55:12.640Z,18.70
2023-05-05T17:57:40.290Z,18.52
2023-05-05T18:00:08.960Z,18.31
2023-05-05T18:02:39.816Z,18.19
2023-05-05T18:05:08.647Z,18.02
2023-05-05T18:07:35.957Z,17.82
2023-05-05T18:10:03.068Z,17.70
2023-05-05T18:12:30.535Z,17.61
2023-05-05T18:14:57.606Z,17.42
2023-05-05T18:17:24.747Z,17.24
2023-05-05T18:19:52.188Z,17.07
2023-05-05T18:22:19.417Z,16.97
2023-05-05T18:24:47.052Z,16.89
2023-05-05T18:27:14.437Z,16.76
2023-05-05T18:29:41.674Z,16.74
2023-05-05T18:32:10.138Z,16.72
2023-05-05T18:34:37.570Z,16.63
2023-05-05T18:37:04.649Z,16.60
2023-05-05T18:39:31.789Z,16.54
2023-05-05T18:41:59.380Z,16.50
2023-05-05T18:44:26.712Z,16.42
2023-05-05T18:46:53.901Z,16.34
2023-05-05T18:49:22.037Z,16.25
2023-05-05T18:51:49.152Z,16.09
2023-05-05T18:54:16.244Z,16.02
2023-05-05T18:56:43.620Z,15.91
2023-05-05T18:59:10.729Z,15.90
2023-05-05T19:01:37.823Z,15.80
2023-05-05T19:04:08.512Z,15.70
2023-05-05T19:06:40.028Z,15.64
2023-05-05T19:09:07.361Z,15.60
2023-05-05T19:11:34.476Z,15.46
2023-05-05T19:14:01.551Z,15.44
2023-05-05T19:16:30.127Z,15.42
2023-05-05T19:19:00.145Z,15.38
2023-05-05T19:21:27.742Z,15.33
2023-05-05T19:23:55.188Z,15.30
2023-05-05T19:26:24.382Z,15.26
2023-05-05T19:28:51.532Z,15.22
2023-05-05T19:31:18.978Z,15.20
2023-05-05T19:33:46.103Z,15.12
2023-05-05T19:36:13.255Z,15.11
2023-05-05T19:38:44.553Z,15.11
2023-05-05T19:41:12.312Z,15.10
2023-05-05T19:43:39.422Z,15.05
2023-05-05T19:46:06.864Z,15.02
2023-05-05T19:48:33.998Z,14.93
2023-05-05T19:51:01.126Z,14.86
2023-05-05T19:53:28.572Z,14.84
2023-05-05T19:55:55.840Z,14.89
2023-05-05T19:58:23.027Z,14.84
2023-05-05T20:00:50.497Z,14.75
2023-05-05T20:03:17.980Z,14.75
2023-05-05T20:05:45.163Z,14.70
2023-05-05T20:08:12.267Z,14.68
2023-05-05T20:10:39.627Z,14.62
2023-05-05T20:13:06.829Z,14.66
2023-05-05T20:15:34.051Z,14.69
2023-05-05T20:18:01.725Z,14.65
2023-05-05T20:20:28.990Z,14.54
2023-05-05T20:22:56.142Z,14.48
2023-05-05T20:25:23.676Z,14.44
2023-05-05T20:27:50.827Z,14.35
2023-05-05T20:30:18.104Z,14.35
2023-05-05T20:32:45.591Z,14.41
2023-05-05T20:35:13.067Z,14.45
2023-05-05T20:37:40.398Z,14.46
2023-05-05T20:40:08.714Z,14.40
2023-05-05T20:42:36.997Z,14.35
2023-05-05T20:45:04.982Z,14.34
2023-05-05T20:47:34.373Z,14.22
2023-05-05T20:50:01.585Z,14.08
2023-05-05T20:52:28.962Z,14.00
2023-05-05T20:54:56.408Z,13.96
2023-05-05T20:57:23.630Z,13.80
2023-05-05T20:59:50.775Z,13.68
2023-05-05T21:02:18.876Z,13.56
2023-05-05T21:04:46.151Z,13.63
2023-05-05T21:07:13.354Z,13.66
2023-05-05T21:09:40.933Z,13.51
2023-05-05T21:12:08.139Z,13.52
2023-05-05T21:14:35.866Z,13.51
2023-05-05T21:17:03.411Z,13.39
2023-05-05T21:19:30.676Z,13.40
2023-05-05T21:21:59.204Z,13.32
2023-05-05T21:24:28.026Z,13.30
2023-05-05T21:26:56.351Z,13.27
2023-05-05T21:29:24.770Z,13.19
2023-05-05T21:31:52.246Z,13.21
2023-05-05T21:34:20.174Z,13.29
2023-05-05T21:36:47.384Z,13.30
2023-05-05T21:39:14.878Z,13.28
2023-05-05T21:41:42.083Z,13.17
2023-05-05T21:44:09.263Z,13.18
2023-05-05T21:46:36.787Z,13.15
2023-05-05T21:49:20.255Z,13.09
2023-05-05T21:51:47.686Z,13.16
2023-05-05T21:54:14.854Z,13.14
2023-05-05T21:56:42.080Z,13.16
2023-05-05T21:59:09.539Z,13.14
2023-05-05T22:01:36.993Z,13.02
2023-05-05T22:04:04.731Z,12.86
2023-05-05T22:06:32.504Z,12.69
2023-05-05T22:08:59.788Z,12.59
2023-05-05T22:11:27.399Z,12.48
2023-05-05T22:13:54.493Z,12.44
2023-05-05T22:16:21.739Z,12.31
2023-05-05T22:18:49.689Z,12.32
2023-05-05T22:21:16.860Z,12.26
2023-05-05T22:23:44.040Z,12.30
2023-05-05T22:26:11.685Z,12.25
2023-05-05T22:28:38.859Z,12.23
2023-05-05T22:31:05.977Z,12.24
2023-05-05T22:33:33.407Z,12.23
2023-05-05T22:36:00.707Z,12.23
2023-05-05T22:38:27.797Z,12.21
2023-05-05T22:40:55.171Z,12.09
2023-05-05T22:43:22.282Z,12.05
2023-05-05T22:45:49.539Z,12.06
2023-05-05T22:48:16.965Z,11.94
2023-05-05T22:50:44.063Z,11.99
2023-05-05T22:53:11.174Z,11.98
2023-05-05T22:55:38.641Z,11.94
2023-05-05T22:58:06.336Z,11.93
2023-05-05T23:00:33.460Z,11.88
2023-05-05T23:03:00.965Z,11.96
2023-05-05T23:05:28.057Z,11.96
2023-05-05T23:07:55.171Z,11.95
2023-05-05T23:10:22.555Z,11.98
2023-05-05T23:12:49.682Z,11.96
2023-05-05T23:15:16.904Z,11.94
2023-05-05T23:17:44.354Z,11.88
2023-05-05T23:20:13.162Z,11.90
2023-05-05T23:22:40.337Z,11.79
2023-05-05T23:25:08.652Z,11.77
2023-05-05T23:27:35.947Z,11.81
2023-05-05T23:30:03.154Z,11.75
2023-05-05T23:32:30.775Z,11.70
2023-05-05T23:34:57.876Z,11.79
2023-05-05T23:37:25.593Z,11.74
2023-05-05T23:39:52.982Z,11.70
2023-05-05T23:42:20.086Z,11.65
2023-05-05T23:44:47.202Z,11.58
2023-05-05T23:47:14.629Z,11.57
2023-05-05T23:49:41.756Z,11.55
2023-05-05T23:52:09.478Z,11.53
2023-05-05T23:54:36.845Z,11.51
2023-05-05T23:57:04.010Z,11.49
2023-05-05T23:59:31.200Z,11.47
